createdAt,value
2017-10-27T00:01:41.502Z,13.39
2017-10-27T00:04:16.702Z,13.38
2017-10-27T00:06:52.340Z,13.36
2017-10-27T00:09:27.163Z,13.31
2017-10-27T00:12:01.813Z,13.32
2017-10-27T00:14:36.423Z,13.33
2017-10-27T00:17:11.263Z,13.33
2017-10-27T00:19:46.023Z,13.28
2017-10-27T00:22:20.828Z,13.30
2017-10-27T00:24:55.631Z,13.30
2017-10-27T00:27:31.401Z,13.29
2017-10-27T00:30:06.044Z,13.27
2017-10-27T00:32:40.788Z,13.27
2017-10-27T00:35:15.127Z,13.30
2017-10-27T00:37:50.047Z,13.30
2017-10-27T00:40:24.755Z,13.30
2017-10-27T00:42:59.483Z,13.27
2017-10-27T00:45:34.326Z,13.26
2017-10-27T00:48:09.198Z,13.26
2017-10-27T00:50:43.943Z,13.15
2017-10-27T00:53:18.684Z,13.15
2017-10-27T00:55:53.084Z,13.13
2017-10-27T00:58:27.708Z,13.08
2017-10-27T01:01:03.403Z,13.04
2017-10-27T01:03:37.679Z,13.05
2017-10-27T01:06:12.227Z,12.98
2017-10-27T01:08:47.279Z,12.97
2017-10-27T01:11:22.215Z,12.96
2017-10-27T01:13:57.120Z,12.98
2017-10-27T01:16:31.307Z,12.99
2017-10-27T01:19:06.310Z,12.93
2017-10-27T01:21:40.823Z,12.91
2017-10-27T01:24:15.352Z,12.89
2017-10-27T01:26:49.944Z,12.87
2017-10-27T01:29:24.691Z,12.81
2017-10-27T01:31:59.410Z,12.79
2017-10-27T01:34:34.211Z,12.77
2017-10-27T01:37:08.955Z,12.74
2017-10-27T01:39:43.651Z,12.76
2017-10-27T01:42:18.348Z,12.70
2017-10-27T01:44:54.285Z,12.69
2017-10-27T01:47:28.566Z,12.67
2017-10-27T01:50:03.336Z,12.66
2017-10-27T01:52:38.007Z,12.65
2017-10-27T01:55:12.567Z,12.62
2017-10-27T01:57:47.230Z,12.60
2017-10-27T02:00:22.069Z,12.54
2017-10-27T02:02:56.646Z,12.54
2017-10-27T02:05:31.207Z,12.59
2017-10-27T02:08:05.800Z,12.58
2017-10-27T02:10:40.414Z,12.61
2017-10-27T02:13:15.551Z,12.62
2017-10-27T02:15:50.799Z,12.67
2017-10-27T02:18:25.420Z,12.62
2017-10-27T02:21:00.066Z,12.62
2017-10-27T02:23:34.804Z,12.59
2017-10-27T02:26:09.402Z,12.57
2017-10-27T02:28:44.305Z,12.54
2017-10-27T02:31:19.615Z,12.50
2017-10-27T02:33:54.318Z,12.48
2017-10-27T02:36:29.143Z,12.50
2017-10-27T02:39:03.378Z,12.51
2017-10-27T02:41:38.281Z,12.56
2017-10-27T02:44:13.171Z,12.55
2017-10-27T02:46:47.907Z,12.54
2017-10-27T02:49:23.398Z,12.54
2017-10-27T02:51:57.947Z,12.58
2017-10-27T02:54:33.957Z,12.58
2017-10-27T02:57:09.295Z,12.61
2017-10-27T02:59:45.239Z,12.64
2017-10-27T03:02:19.923Z,12.63
2017-10-27T03:04:54.572Z,12.66
2017-10-27T03:07:29.294Z,12.62
2017-10-27T03:10:03.812Z,12.54
2017-10-27T03:12:38.370Z,12.47
2017-10-27T03:15:13.375Z,12.43
2017-10-27T03:17:47.771Z,12.42
2017-10-27T03:20:22.567Z,12.44
2017-10-27T03:22:57.029Z,12.42
2017-10-27T03:25:32.014Z,12.41
2017-10-27T03:28:07.628Z,12.39
2017-10-27T03:30:42.149Z,12.39
2017-10-27T03:33:16.817Z,12.29
2017-10-27T03:35:51.539Z,12.24
2017-10-27T03:38:25.927Z,12.24
2017-10-27T03:41:00.783Z,12.29
2017-10-27T03:43:35.499Z,12.31
2017-10-27T03:46:10.126Z,12.34
2017-10-27T03:48:44.619Z,12.36
2017-10-27T03:51:19.582Z,12.33
2017-10-27T03:53:54.324Z,12.29
2017-10-27T03:56:28.614Z,12.33
2017-10-27T03:59:03.218Z,12.34
2017-10-27T04:01:38.119Z,12.27
2017-10-27T04:04:12.427Z,12.25
2017-10-27T04:06:46.999Z,12.27
2017-10-27T04:09:21.886Z,12.27
2017-10-27T04:11:56.612Z,12.19
2017-10-27T04:14:31.345Z,12.12
2017-10-27T04:17:05.823Z,12.08
2017-10-27T04:19:40.655Z,12.07
2017-10-27T04:22:15.095Z,12.02
2017-10-27T04:24:50.108Z,12.01
2017-10-27T04:27:24.441Z,12.01
2017-10-27T04:29:59.064Z,12.01
2017-10-27T04:32:33.715Z,12.01
2017-10-27T04:35:08.621Z,12.02
2017-10-27T04:37:43.266Z,12.05
2017-10-27T04:40:17.920Z,12.06
2017-10-27T04:42:53.547Z,12.02
2017-10-27T04:45:28.094Z,12.04
2017-10-27T04:48:02.785Z,12.03
2017-10-27T04:50:38.358Z,12.03
2017-10-27T04:53:13.215Z,12.01
2017-10-27T04:55:48.161Z,11.93
2017-10-27T04:58:22.759Z,11.87
2017-10-27T05:00:57.447Z,11.85
2017-10-27T05:03:32.076Z,11.85
2017-10-27T05:06:06.711Z,11.81
2017-10-27T05:08:41.574Z,11.80
2017-10-27T05:11:16.086Z,11.82
2017-10-27T05:13:51.690Z,11.84
2017-10-27T05:16:31.902Z,11.82
2017-10-27T05:19:12.518Z,11.81
2017-10-27T05:21:52.555Z,11.78
2017-10-27T05:24:27.223Z,11.80
2017-10-27T05:27:01.934Z,11.68
2017-10-27T05:29:36.582Z,11.74
2017-10-27T05:32:11.273Z,11.76
2017-10-27T05:34:46.063Z,11.66
2017-10-27T05:37:20.646Z,11.64
2017-10-27T05:39:55.018Z,11.61
2017-10-27T05:42:30.382Z,11.57
2017-10-27T05:45:05.683Z,11.56
2017-10-27T05:47:40.412Z,11.61
2017-10-27T05:50:15.268Z,11.62
2017-10-27T05:52:49.986Z,11.69
2017-10-27T05:55:24.814Z,11.69
2017-10-27T05:57:59.535Z,11.70
2017-10-27T06:00:34.250Z,11.67
2017-10-27T06:03:08.851Z,11.58
2017-10-27T06:05:44.455Z,11.51
2017-10-27T06:08:19.136Z,11.43
2017-10-27T06:10:54.819Z,11.39
2017-10-27T06:13:30.370Z,11.33
2017-10-27T06:16:04.887Z,11.37
2017-10-27T06:18:39.598Z,11.38
2017-10-27T06:21:14.219Z,11.40
2017-10-27T06:23:48.835Z,11.44
2017-10-27T06:26:24.720Z,11.49
2017-10-27T06:29:00.347Z,11.46
2017-10-27T06:31:35.063Z,11.45
2017-10-27T06:34:09.795Z,11.50
2017-10-27T06:36:44.363Z,11.46
2017-10-27T06:39:19.013Z,11.41
2017-10-27T06:41:53.786Z,11.38
2017-10-27T06:44:28.211Z,11.36
2017-10-27T06:47:03.187Z,11.40
2017-10-27T06:49:37.547Z,11.47
2017-10-27T06:52:12.438Z,11.50
2017-10-27T06:54:47.123Z,11.45
2017-10-27T06:57:22.360Z,11.38
2017-10-27T06:59:57.059Z,11.40
2017-10-27T07:02:31.574Z,11.43
2017-10-27T07:05:06.275Z,11.40
2017-10-27T07:07:41.003Z,11.38
2017-10-27T07:10:15.747Z,11.38
2017-10-27T07:12:50.497Z,11.39
2017-10-27T07:15:25.246Z,11.46
2017-10-27T07:17:59.995Z,11.49
2017-10-27T07:20:34.063Z,11.50
2017-10-27T07:23:08.598Z,11.49
2017-10-27T07:25:43.148Z,11.53
2017-10-27T07:28:18.300Z,11.68
2017-10-27T07:30:53.299Z,11.74
2017-10-27T07:33:28.070Z,11.81
2017-10-27T07:36:02.655Z,11.83
2017-10-27T07:38:37.335Z,11.83
2017-10-27T07:41:12.061Z,11.80
2017-10-27T07:43:46.754Z,11.93
2017-10-27T07:46:21.683Z,12.03
2017-10-27T07:48:55.983Z,12.12
2017-10-27T07:51:30.700Z,12.24
2017-10-27T07:54:05.271Z,12.30
2017-10-27T07:56:39.727Z,12.36
2017-10-27T07:59:14.407Z,12.42
2017-10-27T08:01:48.793Z,12.47
2017-10-27T08:04:23.443Z,12.54
2017-10-27T08:06:58.170Z,12.65
2017-10-27T08:09:32.819Z,12.74
2017-10-27T08:12:07.438Z,12.70
2017-10-27T08:14:42.175Z,12.71
2017-10-27T08:17:16.727Z,12.75
2017-10-27T08:19:51.619Z,12.88
2017-10-27T08:22:26.014Z,13.04
2017-10-27T08:25:00.779Z,13.17
2017-10-27T08:27:35.441Z,13.29
2017-10-27T08:30:10.059Z,13.38
2017-10-27T08:32:44.746Z,13.47
2017-10-27T08:35:19.251Z,13.57
2017-10-27T08:37:53.919Z,13.56
2017-10-27T08:40:28.706Z,13.53
2017-10-27T08:43:12.746Z,13.60
2017-10-27T08:45:47.815Z,13.71
2017-10-27T08:48:22.355Z,13.86
2017-10-27T08:50:57.014Z,13.92
2017-10-27T08:53:31.794Z,14.11
2017-10-27T08:56:06.399Z,14.32
2017-10-27T08:58:41.142Z,14.39
2017-10-27T09:01:15.605Z,14.36
2017-10-27T09:03:50.300Z,14.27
2017-10-27T09:06:24.958Z,14.23
2017-10-27T09:08:59.628Z,14.22
2017-10-27T09:11:34.286Z,14.22
2017-10-27T09:14:09.083Z,14.29
2017-10-27T09:16:43.550Z,14.39
2017-10-27T09:19:18.606Z,14.51
2017-10-27T09:21:52.874Z,14.53
2017-10-27T09:24:27.622Z,14.48
2017-10-27T09:27:02.216Z,14.40
2017-10-27T09:29:36.682Z,14.29
2017-10-27T09:32:11.228Z,14.25
2017-10-27T09:34:45.667Z,14.21
2017-10-27T09:37:20.427Z,14.26
2017-10-27T09:39:55.062Z,14.25
2017-10-27T09:42:29.591Z,14.24
2017-10-27T09:45:04.147Z,14.23
2017-10-27T09:47:38.810Z,14.18
2017-10-27T09:50:13.363Z,14.08
2017-10-27T09:52:47.971Z,14.16
2017-10-27T09:55:22.630Z,14.38
2017-10-27T09:57:57.081Z,14.63
2017-10-27T10:00:31.670Z,14.84
2017-10-27T10:03:06.324Z,14.81
2017-10-27T10:05:41.011Z,14.77
2017-10-27T10:08:15.611Z,14.88
2017-10-27T10:10:50.283Z,15.06
2017-10-27T10:13:24.947Z,15.25
2017-10-27T10:15:59.535Z,15.40
2017-10-27T10:18:34.159Z,15.60
2017-10-27T10:21:09.342Z,15.64
2017-10-27T10:23:43.423Z,15.61
2017-10-27T10:26:18.482Z,15.62
2017-10-27T10:28:52.870Z,15.73
2017-10-27T10:31:27.359Z,15.83
2017-10-27T10:34:01.995Z,15.80
2017-10-27T10:36:36.523Z,15.55
2017-10-27T10:39:11.315Z,15.39
2017-10-27T10:41:45.985Z,15.39
2017-10-27T10:44:20.522Z,15.47
2017-10-27T10:46:55.111Z,15.44
2017-10-27T10:49:29.795Z,15.43
2017-10-27T10:52:04.498Z,15.45
2017-10-27T10:54:38.927Z,15.57
2017-10-27T10:57:13.482Z,15.74
2017-10-27T10:59:48.162Z,15.86
2017-10-27T11:02:22.712Z,15.97
2017-10-27T11:04:57.303Z,15.92
2017-10-27T11:07:31.900Z,15.70
2017-10-27T11:10:06.504Z,15.61
2017-10-27T11:12:41.236Z,15.52
2017-10-27T11:15:15.945Z,15.59
2017-10-27T11:17:50.722Z,15.55
2017-10-27T11:20:25.883Z,15.46
2017-10-27T11:23:00.343Z,15.43
2017-10-27T11:25:34.914Z,15.49
2017-10-27T11:28:09.611Z,15.56
2017-10-27T11:30:44.107Z,15.66
2017-10-27T11:33:18.795Z,15.73
2017-10-27T11:35:53.375Z,15.72
2017-10-27T11:38:28.099Z,15.64
2017-10-27T11:41:02.739Z,15.54
2017-10-27T11:43:37.169Z,15.48
2017-10-27T11:46:12.390Z,15.53
2017-10-27T11:48:47.030Z,15.39
2017-10-27T11:51:21.507Z,15.77
2017-10-27T11:53:57.186Z,15.81
2017-10-27T11:56:31.808Z,15.78
2017-10-27T11:59:06.634Z,15.75
2017-10-27T12:04:30.134Z,15.70
2017-10-27T12:07:04.328Z,15.71
2017-10-27T12:09:38.867Z,15.72
2017-10-27T12:12:13.616Z,15.78
2017-10-27T12:14:48.050Z,15.79
2017-10-27T12:17:22.686Z,15.73
2017-10-27T12:19:57.331Z,15.66
2017-10-27T12:22:32.877Z,15.57
2017-10-27T12:25:07.666Z,15.50
2017-10-27T12:27:42.544Z,15.48
2017-10-27T12:30:17.022Z,15.47
2017-10-27T12:32:51.715Z,15.43
2017-10-27T12:35:26.383Z,15.43
2017-10-27T12:38:01.141Z,15.36
2017-10-27T12:40:36.035Z,15.38
2017-10-27T12:43:11.347Z,15.40
2017-10-27T12:45:45.963Z,15.41
2017-10-27T12:48:20.408Z,15.35
2017-10-27T12:50:55.079Z,15.27
2017-10-27T12:53:29.659Z,15.18
2017-10-27T12:56:04.259Z,15.15
2017-10-27T12:58:39.256Z,15.07
2017-10-27T13:01:13.419Z,15.05
2017-10-27T13:03:47.960Z,15.14
2017-10-27T13:06:22.942Z,15.32
2017-10-27T13:08:57.309Z,15.65
2017-10-27T13:11:32.171Z,15.99
2017-10-27T13:14:06.862Z,16.17
2017-10-27T13:16:42.094Z,16.22
2017-10-27T13:19:16.723Z,16.31
2017-10-27T13:21:51.578Z,16.33
2017-10-27T13:24:26.027Z,16.22
2017-10-27T13:27:00.811Z,16.02
2017-10-27T13:29:35.442Z,15.81
2017-10-27T13:32:10.223Z,15.55
2017-10-27T13:34:44.569Z,15.34
2017-10-27T13:37:19.306Z,15.12
2017-10-27T13:39:53.952Z,14.97
2017-10-27T13:42:29.015Z,14.89
2017-10-27T13:45:03.355Z,14.82
2017-10-27T13:47:37.950Z,14.73
2017-10-27T13:50:12.438Z,14.69
2017-10-27T13:52:47.044Z,14.73
2017-10-27T13:55:21.696Z,14.70
2017-10-27T13:57:56.319Z,14.69
2017-10-27T14:00:31.138Z,14.72
2017-10-27T14:03:05.442Z,14.68
2017-10-27T14:05:40.088Z,14.72
2017-10-27T14:08:14.746Z,14.72
2017-10-27T14:10:49.455Z,14.72
2017-10-27T14:13:24.083Z,14.71
2017-10-27T14:15:58.755Z,14.73
2017-10-27T14:18:33.234Z,14.72
2017-10-27T14:21:07.779Z,14.65
2017-10-27T14:23:42.532Z,14.69
2017-10-27T14:26:16.982Z,14.69
2017-10-27T14:28:51.831Z,14.66
2017-10-27T14:31:26.216Z,14.68
2017-10-27T14:34:00.658Z,14.65
2017-10-27T14:36:35.199Z,14.64
2017-10-27T14:39:09.787Z,14.64
2017-10-27T14:41:44.432Z,14.64
2017-10-27T14:44:19.054Z,14.59
2017-10-27T14:46:54.135Z,14.53
2017-10-27T14:49:29.083Z,14.49
2017-10-27T14:52:03.374Z,14.40
2017-10-27T14:54:38.339Z,14.42
2017-10-27T14:57:13.200Z,14.40
2017-10-27T14:59:47.477Z,14.39
2017-10-27T15:02:22.176Z,14.33
2017-10-27T15:04:57.146Z,14.28
2017-10-27T15:07:31.343Z,14.30
2017-10-27T15:10:05.915Z,14.30
2017-10-27T15:12:40.883Z,14.29
2017-10-27T15:15:15.119Z,14.29
2017-10-27T15:17:49.755Z,14.22
2017-10-27T15:20:24.308Z,14.28
2017-10-27T15:22:59.019Z,14.31
2017-10-27T15:25:33.810Z,14.25
2017-10-27T15:28:08.048Z,14.22
2017-10-27T15:30:42.968Z,14.18
2017-10-27T15:33:17.531Z,14.07
2017-10-27T15:35:51.823Z,13.96
2017-10-27T15:38:26.463Z,13.90
2017-10-27T15:41:01.470Z,13.88
2017-10-27T15:43:36.230Z,13.82
2017-10-27T15:46:10.875Z,13.72
2017-10-27T15:48:45.599Z,13.64
2017-10-27T15:51:20.218Z,13.61
2017-10-27T15:53:54.750Z,13.55
2017-10-27T15:56:29.371Z,13.51
2017-10-27T15:59:05.248Z,13.40
2017-10-27T16:01:39.975Z,13.35
2017-10-27T16:04:14.468Z,13.27
2017-10-27T16:06:49.510Z,13.30
2017-10-27T16:09:24.218Z,13.22
2017-10-27T16:11:58.959Z,13.21
2017-10-27T16:14:33.703Z,13.14
2017-10-27T16:17:08.444Z,13.14
2017-10-27T16:19:43.263Z,13.09
2017-10-27T16:22:17.986Z,13.10
2017-10-27T16:24:52.795Z,13.13
2017-10-27T16:27:27.094Z,13.11
2017-10-27T16:30:02.172Z,13.10
2017-10-27T16:32:37.725Z,13.10
2017-10-27T16:35:12.455Z,13.12
2017-10-27T16:37:47.296Z,13.13
2017-10-27T16:40:22.311Z,13.06
2017-10-27T16:42:56.760Z,13.02
2017-10-27T16:45:31.025Z,13.01
2017-10-27T16:48:05.647Z,12.97
2017-10-27T16:50:40.895Z,12.97
2017-10-27T16:53:15.574Z,12.98
2017-10-27T16:55:50.284Z,12.95
2017-10-27T16:58:24.931Z,12.93
2017-10-27T17:00:59.316Z,12.91
2017-10-27T17:03:33.930Z,12.92
2017-10-27T17:06:09.195Z,12.90
2017-10-27T17:08:44.034Z,12.86
2017-10-27T17:11:18.851Z,12.86
2017-10-27T17:13:53.622Z,12.90
2017-10-27T17:16:27.963Z,12.88
2017-10-27T17:19:02.766Z,12.89
2017-10-27T17:21:37.667Z,12.85
2017-10-27T17:24:12.020Z,12.84
2017-10-27T17:26:47.095Z,12.87
2017-10-27T17:29:22.646Z,12.89
2017-10-27T17:31:57.358Z,12.85
2017-10-27T17:34:32.032Z,12.88
2017-10-27T17:37:06.870Z,12.89
2017-10-27T17:39:41.490Z,12.89
2017-10-27T17:42:15.920Z,12.94
2017-10-27T17:44:51.855Z,13.01
2017-10-27T17:47:26.219Z,13.04
2017-10-27T17:50:01.224Z,13.06
2017-10-27T17:52:35.956Z,12.92
2017-10-27T17:55:10.879Z,12.80
2017-10-27T17:57:45.566Z,12.73
2017-10-27T18:00:20.504Z,12.68
2017-10-27T18:02:55.971Z,12.66
2017-10-27T18:05:30.990Z,12.69
2017-10-27T18:08:06.002Z,12.63
2017-10-27T18:10:40.694Z,12.67
2017-10-27T18:13:15.323Z,12.65
2017-10-27T18:15:49.626Z,12.68
2017-10-27T18:18:24.591Z,12.67
2017-10-27T18:20:58.935Z,12.68
2017-10-27T18:23:33.951Z,12.64
2017-10-27T18:26:08.634Z,12.64
2017-10-27T18:28:43.475Z,12.60
2017-10-27T18:31:17.886Z,12.62
2017-10-27T18:33:52.740Z,12.53
2017-10-27T18:36:27.135Z,12.54
2017-10-27T18:39:02.134Z,12.56
2017-10-27T18:41:36.815Z,12.58
2017-10-27T18:44:11.596Z,12.56
2017-10-27T18:46:46.312Z,12.51
2017-10-27T18:49:21.475Z,12.51
2017-10-27T18:51:56.687Z,12.47
2017-10-27T18:54:31.066Z,12.41
2017-10-27T18:57:05.673Z,12.42
2017-10-27T18:59:41.406Z,12.40
2017-10-27T19:02:16.516Z,12.37
2017-10-27T19:04:52.135Z,12.37
2017-10-27T19:07:26.851Z,12.33
2017-10-27T19:10:01.564Z,12.34
2017-10-27T19:12:36.166Z,12.31
2017-10-27T19:15:10.791Z,12.28
2017-10-27T19:17:45.347Z,12.27
2017-10-27T19:20:19.895Z,12.18
2017-10-27T19:22:54.607Z,12.16
2017-10-27T19:25:29.296Z,12.13
2017-10-27T19:28:03.527Z,12.07
2017-10-27T19:30:38.167Z,12.08
2017-10-27T19:33:12.755Z,12.13
2017-10-27T19:35:47.788Z,12.12
2017-10-27T19:38:22.407Z,12.13
2017-10-27T19:40:58.038Z,12.17
2017-10-27T19:43:32.658Z,12.14
2017-10-27T19:46:07.436Z,12.08
2017-10-27T19:48:42.019Z,12.10
2017-10-27T19:51:16.659Z,12.11
2017-10-27T19:53:51.408Z,12.12
2017-10-27T19:56:26.195Z,12.12
2017-10-27T19:59:00.911Z,12.13
2017-10-27T20:01:35.391Z,12.17
2017-10-27T20:04:10.040Z,12.16
2017-10-27T20:06:44.783Z,12.15
2017-10-27T20:09:19.303Z,12.16
2017-10-27T20:11:54.157Z,12.13
2017-10-27T20:14:28.703Z,12.07
2017-10-27T20:17:03.466Z,12.00
2017-10-27T20:19:37.975Z,11.96
2017-10-27T20:22:13.054Z,11.97
2017-10-27T20:24:48.344Z,11.94
2017-10-27T20:27:24.088Z,11.93
2017-10-27T20:29:58.799Z,11.95
2017-10-27T20:32:33.443Z,11.91
2017-10-27T20:35:08.119Z,11.94
2017-10-27T20:37:46.836Z,11.95
2017-10-27T20:40:21.835Z,11.94
2017-10-27T20:42:56.584Z,11.94
2017-10-27T20:45:31.267Z,11.90
2017-10-27T20:48:06.863Z,11.91
2017-10-27T20:50:41.496Z,11.93
2017-10-27T20:53:16.241Z,11.89
2017-10-27T20:55:50.950Z,11.88
2017-10-27T20:58:25.509Z,11.84
2017-10-27T21:01:00.045Z,11.81
2017-10-27T21:03:35.602Z,11.78
2017-10-27T21:06:10.210Z,11.77
2017-10-27T21:08:44.841Z,11.81
2017-10-27T21:11:20.423Z,11.79
2017-10-27T21:13:55.095Z,11.76
2017-10-27T21:16:29.799Z,11.83
2017-10-27T21:19:04.627Z,11.87
2017-10-27T21:21:39.508Z,11.84
2017-10-27T21:24:16.771Z,11.82
2017-10-27T21:26:51.168Z,11.84
2017-10-27T21:29:25.886Z,11.80
2017-10-27T21:32:00.531Z,11.77
2017-10-27T21:34:34.894Z,11.79
2017-10-27T21:37:09.487Z,11.89
2017-10-27T21:39:44.293Z,11.91
2017-10-27T21:42:19.091Z,11.87
2017-10-27T21:44:54.798Z,11.79
2017-10-27T21:47:29.398Z,11.70
2017-10-27T21:50:04.299Z,11.69
2017-10-27T21:52:38.751Z,11.64
2017-10-27T21:55:13.715Z,11.63
2017-10-27T21:57:48.383Z,11.67
2017-10-27T22:00:23.123Z,11.70
2017-10-27T22:02:57.510Z,11.72
2017-10-27T22:05:31.967Z,11.68
2017-10-27T22:08:06.741Z,11.71
2017-10-27T22:10:41.875Z,11.70
2017-10-27T22:13:16.519Z,11.70
2017-10-27T22:15:51.499Z,11.69
2017-10-27T22:18:26.339Z,11.67
2017-10-27T22:21:02.003Z,11.62
2017-10-27T22:23:36.591Z,11.60
2017-10-27T22:26:11.319Z,11.58
2017-10-27T22:28:46.039Z,11.53
2017-10-27T22:31:21.690Z,11.50
2017-10-27T22:33:56.457Z,11.46
2017-10-27T22:36:31.151Z,11.49
2017-10-27T22:39:05.586Z,11.48
2017-10-27T22:41:40.635Z,11.48
2017-10-27T22:44:15.175Z,11.37
2017-10-27T22:46:49.602Z,11.31
2017-10-27T22:49:24.247Z,11.35
2017-10-27T22:51:58.926Z,11.37
2017-10-27T22:54:33.303Z,11.37
2017-10-27T22:57:08.207Z,11.33
2017-10-27T22:59:42.839Z,11.28
2017-10-27T23:02:17.555Z,11.27
2017-10-27T23:04:52.152Z,11.25
2017-10-27T23:07:32.119Z,11.25
2017-10-27T23:10:07.351Z,11.29
2017-10-27T23:12:43.115Z,11.33
2017-10-27T23:15:17.730Z,11.38
2017-10-27T23:17:52.479Z,11.37
2017-10-27T23:20:27.187Z,11.41
2017-10-27T23:23:01.996Z,11.41
2017-10-27T23:25:36.772Z,11.44
2017-10-27T23:28:11.539Z,11.44
2017-10-27T23:30:46.299Z,11.47
2017-10-27T23:33:21.143Z,11.45
2017-10-27T23:35:55.993Z,11.48
2017-10-27T23:38:30.776Z,11.53
2017-10-27T23:41:05.508Z,11.54
2017-10-27T23:43:40.127Z,11.57
2017-10-27T23:46:14.872Z,11.53
2017-10-27T23:48:49.519Z,11.59
2017-10-27T23:51:24.127Z,11.62
2017-10-27T23:53:58.775Z,11.61
2017-10-27T23:56:33.460Z,11.50
2017-10-27T23:59:09.022Z,11.48
